Time;durP1;ratioP1;P1;durP2;ratioP2;P2;SDS_P1;SDS_P2;PMS_P1;PMS_P2;Temp;Humidity;BMP_temperature;BMP_pressure;BME280_temperature;BME280_humidity;BME280_pressure;Samples;Min_cycle;Max_cycle;Signal;HPM_P1;HPM_P2
2023/01/20 00:00:24;;;;;;;2.80;1.40;;;0.00;99.90;;;;;;5113388;27;20127;-81
2023/01/20 00:02:53;;;;;;;5.55;1.42;;;0.00;99.90;;;;;;5130865;27;20573;-80
2023/01/20 00:05:24;;;;;;;2.75;1.45;;;0.00;99.90;;;;;;5129934;27;20058;-80
2023/01/20 00:07:53;;;;;;;4.63;1.08;;;0.00;99.90;;;;;;5130965;27;20053;-80
2023/01/20 00:10:22;;;;;;;1.25;0.90;;;0.00;99.90;;;;;;5130638;27;20069;-80
2023/01/20 00:12:52;;;;;;;2.90;1.10;;;0.00;99.90;;;;;;5095950;27;20103;-80
2023/01/20 00:15:18;;;;;;;1.85;1.35;;;-0.10;99.90;;;;;;5127829;27;20482;-80
2023/01/20 00:17:44;;;;;;;2.25;1.23;;;0.00;99.90;;;;;;5109607;27;20199;-80
2023/01/20 00:20:12;;;;;;;4.28;1.40;;;-0.10;99.90;;;;;;5128142;27;20082;-80
2023/01/20 00:22:41;;;;;;;4.43;1.02;;;0.60;99.90;;;;;;5092817;27;20072;-81
2023/01/20 00:25:09;;;;;;;3.70;1.50;;;-0.10;99.90;;;;;;5128348;27;20546;-80
2023/01/20 00:27:35;;;;;;;4.32;1.48;;;-0.10;99.90;;;;;;5127987;27;20490;-80
2023/01/20 00:30:01;;;;;;;3.42;1.30;;;-0.10;99.90;;;;;;5092653;27;20109;-80
2023/01/20 00:32:27;;;;;;;2.38;1.38;;;-0.10;99.90;;;;;;5128072;27;20043;-80
2023/01/20 00:34:52;;;;;;;2.53;1.45;;;0.80;99.90;;;;;;5109681;27;20051;-80
2023/01/20 00:37:18;;;;;;;4.45;1.20;;;-0.10;99.90;;;;;;5092783;27;20047;-80
2023/01/20 00:39:44;;;;;;;3.75;1.33;;;0.90;99.90;;;;;;5109535;27;20493;-81
2023/01/20 00:42:09;;;;;;;4.72;1.60;;;0.20;99.90;;;;;;5128350;27;20486;-81
2023/01/20 00:44:35;;;;;;;1.70;1.13;;;-0.10;99.90;;;;;;5109651;27;20043;-81
2023/01/20 00:47:01;;;;;;;2.08;1.38;;;-0.10;99.90;;;;;;5109480;27;20039;-81
2023/01/20 00:49:26;;;;;;;5.75;2.10;;;0.10;99.90;;;;;;5092177;27;20171;-81
2023/01/20 00:51:52;;;;;;;3.85;2.10;;;-0.20;99.90;;;;;;5127998;27;20142;-80
2023/01/20 00:54:18;;;;;;;2.78;1.77;;;-0.10;99.90;;;;;;5092414;27;20178;-81
2023/01/20 00:56:43;;;;;;;6.35;2.55;;;-0.20;99.90;;;;;;5109329;27;20100;-81
2023/01/20 00:59:09;;;;;;;5.03;2.55;;;-0.20;99.90;;;;;;5109262;27;20055;-80
2023/01/20 01:01:35;;;;;;;5.38;3.38;;;-0.20;99.90;;;;;;5092160;27;20419;-80
2023/01/20 01:04:01;;;;;;;7.05;3.92;;;1.00;99.90;;;;;;5092147;27;20406;-80
2023/01/20 01:06:26;;;;;;;6.90;3.88;;;-0.20;99.90;;;;;;5109079;27;20417;-81
2023/01/20 01:08:52;;;;;;;7.93;4.47;;;-0.20;99.90;;;;;;5108986;27;20107;-81
2023/01/20 01:11:18;;;;;;;11.05;5.18;;;-0.20;99.90;;;;;;5092028;27;20138;-81
2023/01/20 01:13:43;;;;;;;11.38;5.35;;;-0.20;99.90;;;;;;5108859;27;20383;-81
2023/01/20 01:16:11;;;;;;;8.25;5.68;;;-0.10;99.90;;;;;;5108845;27;20035;-81
2023/01/20 01:18:37;;;;;;;15.20;5.70;;;-0.10;99.90;;;;;;5127208;27;20039;-81
2023/01/20 01:21:11;;;;;;;11.70;6.80;;;-0.10;99.90;;;;;;5074784;27;20047;-81
2023/01/20 01:23:37;;;;;;;15.95;6.18;;;-0.10;99.90;;;;;;5127277;27;20043;-81
2023/01/20 01:26:03;;;;;;;13.27;7.00;;;0.00;99.90;;;;;;5108021;27;20039;-80
2023/01/20 01:28:29;;;;;;;20.65;7.18;;;0.60;99.90;;;;;;5108524;27;20047;-80
2023/01/20 01:30:54;;;;;;;20.83;7.68;;;0.10;99.90;;;;;;5108321;27;20047;-82
2023/01/20 01:33:20;;;;;;;13.13;8.02;;;0.10;99.90;;;;;;5074723;27;20042;-80
2023/01/20 01:35:56;;;;;;;26.70;8.07;;;0.10;99.90;;;;;;5108472;27;20050;-80
2023/01/20 01:38:22;;;;;;;18.80;7.70;;;0.10;99.90;;;;;;5127211;27;20485;-82
2023/01/20 01:40:52;;;;;;;20.50;8.45;;;0.10;99.90;;;;;;5126841;27;20122;-81
2023/01/20 01:43:21;;;;;;;17.23;8.35;;;0.20;99.90;;;;;;5108930;27;20043;-80
2023/01/20 01:45:46;;;;;;;17.30;8.55;;;0.20;99.90;;;;;;5126777;27;20535;-80
2023/01/20 01:48:12;;;;;;;20.85;9.35;;;0.20;99.90;;;;;;5126916;27;20118;-81
2023/01/20 01:50:51;;;;;;;15.77;7.72;;;0.90;99.90;;;;;;5127241;27;20043;-81
2023/01/20 01:53:17;;;;;;;16.50;9.07;;;0.20;99.90;;;;;;5108238;27;20046;-81
2023/01/20 01:55:50;;;;;;;27.27;8.73;;;0.20;99.90;;;;;;5091042;27;20414;-81
2023/01/20 01:58:18;;;;;;;16.40;9.70;;;0.20;99.90;;;;;;5107884;27;20043;-81
2023/01/20 02:00:45;;;;;;;19.50;8.55;;;0.20;99.90;;;;;;5108036;27;20058;-81
2023/01/20 02:03:11;;;;;;;16.63;8.60;;;0.20;99.90;;;;;;5126766;27;20368;-81
2023/01/20 02:05:38;;;;;;;15.38;8.65;;;0.20;99.90;;;;;;5126258;27;20464;-81
2023/01/20 02:08:06;;;;;;;13.15;8.80;;;0.20;99.90;;;;;;5126674;27;20135;-81
2023/01/20 02:10:31;;;;;;;14.90;7.90;;;0.20;99.90;;;;;;5126392;27;20040;-80
2023/01/20 02:12:58;;;;;;;16.23;9.10;;;0.10;99.90;;;;;;5074050;27;20042;-81
2023/01/20 02:15:29;;;;;;;18.35;9.18;;;1.40;99.90;;;;;;5107404;27;20514;-81
2023/01/20 02:18:24;;;;;;;15.30;8.75;;;0.10;99.90;;;;;;5126123;27;20565;-81
2023/01/20 02:21:20;;;;;;;14.65;7.88;;;0.10;99.90;;;;;;5108009;27;20151;-81
2023/01/20 02:24:16;;;;;;;14.60;6.82;;;0.00;99.90;;;;;;5125961;27;20039;-81
2023/01/20 02:26:55;;;;;;;11.43;6.88;;;0.00;99.90;;;;;;5107623;27;20096;-80
2023/01/20 02:29:24;;;;;;;15.32;7.47;;;0.00;99.90;;;;;;5126128;27;20050;-81
2023/01/20 02:31:49;;;;;;;10.77;7.10;;;-0.10;99.90;;;;;;5126197;27;20397;-80
2023/01/20 02:34:33;;;;;;;13.27;6.90;;;0.00;99.90;;;;;;5107262;27;20043;-81
2023/01/20 02:37:11;;;;;;;10.70;7.30;;;-0.10;99.90;;;;;;5106444;27;20047;-80
2023/01/20 02:39:40;;;;;;;12.07;7.63;;;-0.10;99.90;;;;;;5090436;27;20103;-81
2023/01/20 02:42:21;;;;;;;12.02;7.57;;;-0.10;99.90;;;;;;5107661;27;20393;-81
2023/01/20 02:45:18;;;;;;;12.70;7.80;;;-0.10;99.90;;;;;;5090780;28;20061;-81
2023/01/20 02:47:54;;;;;;;14.52;8.35;;;-0.10;99.90;;;;;;5107155;27;20047;-80
2023/01/20 02:50:39;;;;;;;13.15;7.65;;;0.00;99.90;;;;;;5107137;28;20513;-81
2023/01/20 02:53:06;;;;;;;12.90;7.63;;;0.00;99.90;;;;;;5106990;28;20039;-81
2023/01/20 02:55:45;;;;;;;12.60;7.40;;;0.00;99.90;;;;;;5106939;27;20039;-81
2023/01/20 02:58:19;;;;;;;11.98;7.85;;;0.00;99.90;;;;;;5106743;28;20049;-81
2023/01/20 03:00:58;;;;;;;13.20;7.75;;;0.00;99.90;;;;;;5125355;28;20055;-81
2023/01/20 03:03:31;;;;;;;16.58;8.50;;;0.00;99.90;;;;;;5107212;28;20062;-81
2023/01/20 03:06:00;;;;;;;13.55;8.90;;;0.50;99.90;;;;;;5089783;28;20047;-81
2023/01/20 03:08:29;;;;;;;15.02;8.55;;;0.10;99.90;;;;;;5125804;28;20043;-81
2023/01/20 03:11:01;;;;;;;16.73;9.73;;;0.10;99.90;;;;;;5089679;28;20043;-81
2023/01/20 03:13:55;;;;;;;17.13;9.13;;;0.10;99.90;;;;;;5125662;28;20040;-81
2023/01/20 03:16:23;;;;;;;13.68;8.88;;;0.20;99.90;;;;;;5115153;28;20061;-81
2023/01/20 03:18:50;;;;;;;18.40;9.18;;;0.90;99.90;;;;;;5125989;28;20043;-81
2023/01/20 03:21:16;;;;;;;16.15;9.52;;;0.10;99.90;;;;;;5107369;28;20078;-81
2023/01/20 03:23:47;;;;;;;15.20;9.55;;;1.00;99.90;;;;;;5107383;28;20108;-82
2023/01/20 03:26:15;;;;;;;18.90;9.75;;;0.10;99.90;;;;;;5090354;28;20099;-81
2023/01/20 03:28:47;;;;;;;16.45;10.48;;;1.50;99.90;;;;;;5125887;28;20471;-81
2023/01/20 03:31:12;;;;;;;16.52;9.68;;;0.10;99.90;;;;;;5090269;28;20405;-81
2023/01/20 03:33:38;;;;;;;18.60;10.90;;;0.10;99.90;;;;;;5107213;28;20035;-81
2023/01/20 03:36:04;;;;;;;15.85;10.50;;;0.10;99.90;;;;;;5106542;28;20115;-81
2023/01/20 03:38:30;;;;;;;17.33;11.07;;;0.10;99.90;;;;;;5090196;28;20042;-81
2023/01/20 03:41:09;;;;;;;17.00;10.50;;;0.20;99.90;;;;;;5072599;28;20398;-81
2023/01/20 03:43:50;;;;;;;17.77;10.40;;;0.20;99.90;;;;;;5106547;28;20054;-81
2023/01/20 03:46:40;;;;;;;20.50;12.30;;;0.30;99.90;;;;;;5106760;28;20054;-81
2023/01/20 03:49:19;;;;;;;19.92;12.50;;;0.30;99.90;;;;;;5109249;27;20047;-81
2023/01/20 03:51:56;;;;;;;19.98;11.98;;;0.40;99.90;;;;;;5110703;27;20142;-81
2023/01/20 03:54:27;;;;;;;23.92;12.55;;;0.40;99.90;;;;;;5110353;27;20053;-81
2023/01/20 03:57:02;;;;;;;22.45;13.00;;;0.40;99.90;;;;;;5110610;27;20051;-81
2023/01/20 03:59:33;;;;;;;19.55;12.02;;;0.40;99.90;;;;;;5110206;27;20114;-81
2023/01/20 04:02:02;;;;;;;21.23;13.00;;;0.40;99.90;;;;;;5093332;27;20071;-81
2023/01/20 04:04:28;;;;;;;24.83;11.88;;;1.80;99.90;;;;;;5110829;27;20043;-81
2023/01/20 04:06:54;;;;;;;24.48;12.23;;;0.40;99.90;;;;;;5128214;27;20063;-81
2023/01/20 04:09:29;;;;;;;20.42;12.27;;;0.50;99.90;;;;;;5128613;27;20082;-82
2023/01/20 04:11:55;;;;;;;25.90;13.40;;;0.50;99.90;;;;;;5110134;27;20047;-80
2023/01/20 04:14:21;;;;;;;22.83;13.00;;;0.50;99.90;;;;;;5110544;27;20107;-81
2023/01/20 04:16:55;;;;;;;22.13;13.57;;;0.50;99.90;;;;;;5110218;27;20050;-81
2023/01/20 04:19:21;;;;;;;24.23;13.45;;;0.60;99.90;;;;;;5109657;27;20042;-81
2023/01/20 04:21:52;;;;;;;24.25;13.73;;;0.50;99.90;;;;;;5110414;27;20042;-81
2023/01/20 04:24:30;;;;;;;23.33;13.77;;;0.50;99.90;;;;;;5110281;27;20054;-81
2023/01/20 04:26:55;;;;;;;22.25;12.82;;;0.50;99.90;;;;;;5109769;27;20130;-81
2023/01/20 04:29:21;;;;;;;25.05;12.93;;;0.60;99.90;;;;;;5110170;27;20188;-81
2023/01/20 04:31:47;;;;;;;26.67;13.32;;;0.50;99.90;;;;;;5109870;27;20050;-81
2023/01/20 04:34:14;;;;;;;25.15;12.95;;;0.50;99.90;;;;;;5076242;27;20043;-81
2023/01/20 04:36:40;;;;;;;25.25;14.75;;;0.50;99.90;;;;;;5109726;27;20069;-81
2023/01/20 04:39:06;;;;;;;27.45;13.85;;;0.50;99.90;;;;;;5075396;27;20051;-81
2023/01/20 04:41:34;;;;;;;22.17;13.88;;;0.60;99.90;;;;;;5109198;27;20054;-80
2023/01/20 04:44:00;;;;;;;23.23;13.75;;;0.50;99.90;;;;;;5092472;27;20047;-81
2023/01/20 04:46:26;;;;;;;24.17;13.18;;;0.50;99.90;;;;;;5109057;27;20426;-81
2023/01/20 04:48:51;;;;;;;24.40;13.38;;;0.50;99.90;;;;;;5109645;27;20039;-81
2023/01/20 04:51:17;;;;;;;24.92;13.52;;;0.50;99.90;;;;;;5075195;27;20505;-80
2023/01/20 04:53:43;;;;;;;26.55;13.20;;;0.80;99.90;;;;;;5074942;27;20398;-80
2023/01/20 04:56:13;;;;;;;26.30;13.60;;;1.70;99.90;;;;;;5092059;27;20410;-81
2023/01/20 04:58:40;;;;;;;21.23;11.98;;;0.50;99.90;;;;;;5091580;27;20058;-81
2023/01/20 05:01:06;;;;;;;25.85;13.77;;;1.60;99.90;;;;;;5109007;27;20054;-81
2023/01/20 05:03:32;;;;;;;23.92;12.93;;;0.40;99.90;;;;;;5092048;27;20393;-81
2023/01/20 05:05:58;;;;;;;25.30;12.63;;;0.40;99.90;;;;;;5088534;28;20130;-81
2023/01/20 05:08:23;;;;;;;22.13;11.65;;;0.50;99.90;;;;;;5088517;28;20504;-80
2023/01/20 05:10:49;;;;;;;24.02;11.60;;;0.50;99.90;;;;;;5071311;28;20040;-81
2023/01/20 05:13:15;;;;;;;26.77;12.15;;;0.40;99.90;;;;;;5088624;28;20048;-81
2023/01/20 05:15:42;;;;;;;23.27;11.43;;;0.40;99.90;;;;;;5105560;28;20122;-81
2023/01/20 05:18:08;;;;;;;23.25;12.20;;;0.40;99.90;;;;;;5105395;28;20166;-81
2023/01/20 05:20:34;;;;;;;19.67;11.27;;;1.50;99.90;;;;;;5105094;28;20505;-81
2023/01/20 05:22:59;;;;;;;21.73;11.73;;;0.30;99.90;;;;;;5071968;28;20051;-81
2023/01/20 05:25:25;;;;;;;20.38;10.77;;;0.40;99.90;;;;;;5106560;28;20051;-81
2023/01/20 05:27:51;;;;;;;21.38;11.85;;;1.60;99.90;;;;;;5106487;28;20052;-81
2023/01/20 05:30:17;;;;;;;20.20;11.40;;;0.30;99.90;;;;;;5106813;28;20486;-81
2023/01/20 05:32:45;;;;;;;24.98;13.18;;;0.30;99.90;;;;;;5104789;28;20059;-81
2023/01/20 05:35:10;;;;;;;21.38;12.43;;;0.30;99.90;;;;;;5087830;28;20043;-81
2023/01/20 05:37:36;;;;;;;20.20;11.30;;;1.70;99.90;;;;;;5088008;28;20044;-81
2023/01/20 05:40:02;;;;;;;26.85;11.13;;;0.30;99.90;;;;;;5106120;28;20477;-81
2023/01/20 05:42:30;;;;;;;21.77;11.98;;;0.40;99.90;;;;;;5106248;28;20502;-81
2023/01/20 05:44:56;;;;;;;21.17;11.35;;;0.30;99.90;;;;;;5106025;27;20083;-80
2023/01/20 05:47:21;;;;;;;22.33;10.82;;;0.90;99.90;;;;;;5106613;28;20082;-81
2023/01/20 05:49:47;;;;;;;21.48;11.38;;;0.30;99.90;;;;;;5105738;28;20065;-81
2023/01/20 05:52:13;;;;;;;22.25;11.80;;;1.40;99.90;;;;;;5087772;28;20043;-81
2023/01/20 05:54:39;;;;;;;22.77;11.68;;;0.30;99.90;;;;;;5106362;28;20035;-82
2023/01/20 05:57:04;;;;;;;21.75;11.57;;;0.80;99.90;;;;;;5106315;28;20046;-82
2023/01/20 05:59:30;;;;;;;24.05;11.82;;;0.30;99.90;;;;;;5104631;28;20392;-80
2023/01/20 06:01:56;;;;;;;24.58;11.68;;;0.30;99.90;;;;;;5087840;28;20134;-82
2023/01/20 06:04:22;;;;;;;21.05;11.40;;;0.30;99.90;;;;;;5087731;28;20047;-84
2023/01/20 06:06:47;;;;;;;26.80;11.60;;;0.20;99.90;;;;;;5103566;28;20414;-82
2023/01/20 06:09:13;;;;;;;26.90;12.40;;;0.20;99.90;;;;;;5106042;28;20040;-82
2023/01/20 06:11:39;;;;;;;21.77;12.15;;;0.30;99.90;;;;;;5105201;28;20036;-81
2023/01/20 06:14:05;;;;;;;23.60;12.48;;;0.30;99.90;;;;;;5104117;28;20043;-81
2023/01/20 06:16:31;;;;;;;24.80;12.63;;;0.30;99.90;;;;;;5087120;28;20051;-83
2023/01/20 06:18:56;;;;;;;21.92;12.45;;;0.30;99.90;;;;;;5104339;28;20075;-82
2023/01/20 06:21:23;;;;;;;24.17;12.80;;;0.30;99.90;;;;;;5104511;28;20058;-81
2023/01/20 06:23:49;;;;;;;26.23;13.00;;;0.30;99.90;;;;;;5086852;28;20126;-81
2023/01/20 06:26:15;;;;;;;25.30;12.85;;;0.30;99.90;;;;;;5103709;28;20131;-81
2023/01/20 06:28:41;;;;;;;26.17;12.70;;;0.80;99.90;;;;;;5105580;28;20118;-81
2023/01/20 06:31:08;;;;;;;27.80;13.30;;;0.30;99.90;;;;;;5070359;28;20051;-81
2023/01/20 06:33:34;;;;;;;27.70;12.80;;;0.30;99.90;;;;;;5104168;28;20047;-82
2023/01/20 06:36:00;;;;;;;26.40;13.15;;;0.30;99.90;;;;;;5087362;28;20123;-81
2023/01/20 06:38:29;;;;;;;30.70;14.48;;;0.30;99.90;;;;;;5087252;28;20443;-82
2023/01/20 06:41:00;;;;;;;23.63;12.88;;;0.40;99.90;;;;;;5103572;28;20573;-82
2023/01/20 06:43:31;;;;;;;23.15;12.20;;;0.30;99.90;;;;;;5087473;28;20057;-83
2023/01/20 06:46:01;;;;;;;30.38;13.98;;;0.40;99.90;;;;;;5103910;28;20075;-89
2023/01/20 06:48:26;;;;;;;26.73;13.43;;;0.40;99.90;;;;;;5103704;28;20175;-82
2023/01/20 06:51:08;;;;;;;26.35;13.85;;;0.40;99.90;;;;;;5087204;28;20044;-89
2023/01/20 06:53:34;;;;;;;28.40;13.23;;;0.40;99.90;;;;;;5087037;28;20411;-81
2023/01/20 06:56:00;;;;;;;27.25;14.85;;;0.40;99.90;;;;;;5069993;28;20046;-81
2023/01/20 06:58:28;;;;;;;23.75;12.93;;;0.40;99.90;;;;;;5103764;28;20421;-81
2023/01/20 07:00:54;;;;;;;23.77;14.07;;;0.40;99.90;;;;;;5103167;28;20058;-82
2023/01/20 07:03:20;;;;;;;25.17;13.05;;;1.70;99.90;;;;;;5086733;28;20048;-81
2023/01/20 07:06:14;;;;;;;28.27;15.02;;;0.40;99.90;;;;;;5088624;27;20044;-82
2023/01/20 07:08:44;;;;;;;28.13;13.80;;;1.20;99.90;;;;;;5104520;28;20379;-81
2023/01/20 07:11:10;;;;;;;26.10;14.20;;;0.40;99.90;;;;;;5089933;28;20039;-82
2023/01/20 07:13:36;;;;;;;26.40;13.95;;;1.90;99.90;;;;;;5106561;28;20043;-81
2023/01/20 07:16:02;;;;;;;25.35;13.65;;;0.50;99.90;;;;;;5107006;28;20047;-81
2023/01/20 07:18:28;;;;;;;30.45;14.80;;;0.50;99.90;;;;;;5089959;28;20104;-82
2023/01/20 07:20:54;;;;;;;29.77;14.85;;;0.50;99.90;;;;;;5106686;28;20079;-82
2023/01/20 07:23:20;;;;;;;23.55;13.40;;;1.70;99.90;;;;;;5092978;27;20425;-81
2023/01/20 07:25:46;;;;;;;31.05;15.13;;;0.40;99.90;;;;;;5111203;27;20050;-82
2023/01/20 07:28:12;;;;;;;25.98;13.85;;;0.40;99.90;;;;;;5094235;27;20390;-81
2023/01/20 07:30:38;;;;;;;25.45;14.27;;;0.50;99.90;;;;;;5076910;27;20512;-81
2023/01/20 07:33:06;;;;;;;30.35;15.43;;;0.50;99.90;;;;;;5077638;27;20043;-82
2023/01/20 07:35:32;;;;;;;28.83;15.02;;;0.50;99.90;;;;;;5110741;27;20039;-81
2023/01/20 07:37:57;;;;;;;30.45;14.73;;;0.50;99.90;;;;;;5077167;27;20042;-82
2023/01/20 07:40:23;;;;;;;27.48;14.40;;;0.50;99.90;;;;;;5093659;27;20047;-81
2023/01/20 07:42:50;;;;;;;24.17;14.50;;;1.50;99.90;;;;;;5094186;27;20045;-81
2023/01/20 07:45:16;;;;;;;29.42;14.98;;;0.50;99.90;;;;;;5110386;27;20546;-81
2023/01/20 07:47:42;;;;;;;25.98;14.95;;;0.50;99.90;;;;;;5093450;27;20135;-81
2023/01/20 07:50:08;;;;;;;28.90;14.88;;;0.50;99.90;;;;;;5093907;27;20035;-80
2023/01/20 07:52:34;;;;;;;29.00;15.30;;;0.50;99.90;;;;;;5093391;27;20047;-80
2023/01/20 07:54:59;;;;;;;29.33;16.13;;;0.50;99.90;;;;;;5076365;27;20133;-81
2023/01/20 07:57:26;;;;;;;31.05;15.35;;;0.50;99.90;;;;;;5094359;27;20049;-81
2023/01/20 07:59:52;;;;;;;29.75;15.32;;;1.90;99.90;;;;;;5093370;27;20092;-81
2023/01/20 08:02:18;;;;;;;28.25;14.38;;;1.20;99.90;;;;;;5076093;27;20043;-81
2023/01/20 08:04:44;;;;;;;30.88;15.88;;;0.50;99.90;;;;;;5093213;27;20089;-81
2023/01/20 08:07:10;;;;;;;33.75;15.38;;;0.60;99.90;;;;;;5092845;27;20083;-81
2023/01/20 08:09:35;;;;;;;32.72;16.27;;;0.60;99.90;;;;;;5109969;27;20468;-81
2023/01/20 08:12:01;;;;;;;32.50;16.13;;;1.60;99.90;;;;;;5093523;27;20058;-81
2023/01/20 08:14:27;;;;;;;32.25;15.35;;;0.60;99.90;;;;;;5110816;27;20074;-81
2023/01/20 08:16:52;;;;;;;31.27;16.60;;;0.60;99.90;;;;;;5093265;27;20063;-81
2023/01/20 08:19:18;;;;;;;29.95;16.88;;;1.80;99.90;;;;;;5109909;27;20054;-81
2023/01/20 08:21:44;;;;;;;30.50;15.98;;;0.60;99.90;;;;;;5092780;27;20508;-82
2023/01/20 08:24:10;;;;;;;32.08;16.60;;;0.70;99.90;;;;;;5076390;27;20046;-82
2023/01/20 08:26:36;;;;;;;29.88;16.48;;;1.60;99.90;;;;;;5110171;27;20490;-81
2023/01/20 08:29:06;;;;;;;30.02;16.23;;;0.60;99.90;;;;;;5110240;27;20047;-81
2023/01/20 08:31:35;;;;;;;30.23;17.00;;;0.70;99.90;;;;;;5109588;27;20043;-83
2023/01/20 08:34:01;;;;;;;32.80;16.52;;;0.70;99.90;;;;;;5091778;27;20092;-81
2023/01/20 08:36:30;;;;;;;33.38;17.45;;;0.70;99.90;;;;;;5092067;27;20040;-80
2023/01/20 08:38:57;;;;;;;32.13;17.50;;;2.00;99.90;;;;;;5092492;27;20138;-83
2023/01/20 08:41:30;;;;;;;32.00;16.27;;;0.80;99.90;;;;;;5109450;27;20035;-81
2023/01/20 08:43:58;;;;;;;39.92;17.58;;;0.70;99.90;;;;;;5109528;27;20054;-80
2023/01/20 08:46:24;;;;;;;33.88;17.27;;;0.80;99.90;;;;;;5092493;27;20078;-80
2023/01/20 08:48:50;;;;;;;34.67;17.98;;;1.40;99.90;;;;;;5092614;27;20079;-80
2023/01/20 08:51:20;;;;;;;30.10;18.20;;;0.80;99.90;;;;;;5109354;27;20043;-80
2023/01/20 08:53:47;;;;;;;30.98;17.85;;;0.80;99.90;;;;;;5109358;27;20047;-80
2023/01/20 08:56:13;;;;;;;34.28;18.17;;;0.90;99.90;;;;;;5092184;27;20098;-80
2023/01/20 08:58:39;;;;;;;32.05;17.20;;;1.10;99.90;;;;;;5075495;27;20043;-80
2023/01/20 09:01:10;;;;;;;32.22;17.88;;;1.90;99.90;;;;;;5109136;27;20138;-80
2023/01/20 09:03:36;;;;;;;36.17;17.70;;;1.00;99.90;;;;;;5091981;27;20049;-80
2023/01/20 09:06:03;;;;;;;34.03;17.52;;;0.90;99.90;;;;;;5108958;27;20047;-80
2023/01/20 09:08:29;;;;;;;33.53;18.02;;;1.00;99.90;;;;;;5108978;27;20047;-79
2023/01/20 09:11:02;;;;;;;33.17;17.35;;;1.00;99.90;;;;;;5091668;27;20078;-80
2023/01/20 09:13:28;;;;;;;41.67;18.42;;;1.00;99.90;;;;;;5092129;27;20039;-80
2023/01/20 09:15:53;;;;;;;35.95;18.48;;;1.20;99.90;;;;;;5075186;27;20397;-80
2023/01/20 09:18:19;;;;;;;32.30;18.27;;;1.00;99.90;;;;;;5091554;27;20047;-80
2023/01/20 09:20:45;;;;;;;36.42;17.90;;;1.10;99.90;;;;;;5091587;27;20134;-79
2023/01/20 09:23:10;;;;;;;38.15;19.52;;;1.10;99.90;;;;;;5091974;27;20043;-80
2023/01/20 09:25:36;;;;;;;36.00;19.40;;;1.10;99.90;;;;;;5091982;27;20051;-80
2023/01/20 09:28:02;;;;;;;36.08;18.95;;;2.00;99.90;;;;;;5108342;27;20491;-80
2023/01/20 09:30:27;;;;;;;40.35;19.40;;;1.10;99.90;;;;;;5091418;27;20078;-80
2023/01/20 09:32:55;;;;;;;33.28;19.15;;;1.20;99.90;;;;;;5108328;27;20043;-80
2023/01/20 09:35:21;;;;;;;37.58;19.15;;;1.20;99.90;;;;;;5092098;27;20519;-80
2023/01/20 09:46:45;;;;;;;34.13;18.85;;;1.20;99.90;;;;;;5107559;27;20043;-81
2023/01/20 09:55:23;;;;;;;40.92;19.50;;;2.10;99.90;;;;;;5107931;27;20089;-81
2023/01/20 09:58:09;;;;;;;24.17;13.25;;;1.30;99.90;;;;;;5108345;27;20086;-81
2023/01/20 10:00:38;;;;;;;35.67;17.00;;;1.30;99.90;;;;;;5091029;27;20078;-80
2023/01/20 10:03:19;;;;;;;36.55;19.38;;;2.20;99.90;;;;;;5107923;27;20036;-81
2023/01/20 10:05:49;;;;;;;34.15;17.50;;;1.30;99.90;;;;;;5090613;27;20131;-81
2023/01/20 10:08:42;;;;;;;35.75;18.00;;;1.30;99.90;;;;;;5091308;27;20051;-81
2023/01/20 10:11:13;;;;;;;36.25;19.38;;;1.40;99.90;;;;;;5125567;27;20446;-80
2023/01/20 10:13:54;;;;;;;37.70;18.90;;;1.40;99.90;;;;;;5126285;27;20405;-80
2023/01/20 10:16:39;;;;;;;34.65;17.38;;;1.40;99.90;;;;;;5125221;27;20054;-82
2023/01/20 10:19:30;;;;;;;41.03;17.77;;;1.40;99.90;;;;;;5125351;27;20055;-82
2023/01/20 10:22:05;;;;;;;39.40;19.17;;;1.40;99.90;;;;;;5125076;27;20567;-81
2023/01/20 10:24:36;;;;;;;37.47;19.10;;;1.40;99.90;;;;;;5104922;27;20054;-83
2023/01/20 10:27:04;;;;;;;34.42;17.50;;;1.40;99.90;;;;;;5124236;27;20043;-83
2023/01/20 10:29:57;;;;;;;39.85;18.58;;;1.40;99.90;;;;;;5125299;27;20053;-83
2023/01/20 10:32:39;;;;;;;38.42;18.05;;;1.40;99.90;;;;;;5107753;27;20636;-83
2023/01/20 10:35:19;;;;;;;39.22;18.92;;;1.40;99.90;;;;;;5106821;27;20055;-83
2023/01/20 10:37:46;;;;;;;35.47;17.88;;;1.40;99.90;;;;;;5125275;27;20057;-83
2023/01/20 10:40:55;;;;;;;37.58;18.58;;;1.40;99.90;;;;;;5104943;27;20055;-83
2023/01/20 10:43:22;;;;;;;33.42;16.70;;;1.40;99.90;;;;;;5034764;27;20045;-83
2023/01/20 10:46:09;;;;;;;31.05;16.63;;;1.40;99.90;;;;;;5091099;27;20456;-83
2023/01/20 10:49:06;;;;;;;37.35;17.73;;;1.40;99.90;;;;;;5124813;27;20055;-84
2023/01/20 10:51:42;;;;;;;35.50;18.38;;;1.40;99.90;;;;;;5122187;27;20062;-84
2023/01/20 10:54:40;;;;;;;38.95;18.65;;;1.40;99.90;;;;;;5125694;27;20070;-83
2023/01/20 10:57:12;;;;;;;34.10;16.17;;;1.40;99.90;;;;;;5124129;27;20097;-84
2023/01/20 10:59:53;;;;;;;38.20;18.60;;;1.50;99.90;;;;;;5106355;27;20054;-83
2023/01/20 11:02:33;;;;;;;36.60;18.20;;;1.40;99.90;;;;;;5125422;28;20379;-83
2023/01/20 11:05:28;;;;;;;42.72;18.65;;;1.40;99.90;;;;;;5105663;28;20055;-84
2023/01/20 11:07:56;;;;;;;37.30;18.67;;;1.40;99.90;;;;;;5103681;28;20043;-83
2023/01/20 11:10:27;;;;;;;34.15;17.55;;;1.50;99.90;;;;;;5102903;28;20494;-83
2023/01/20 11:13:00;;;;;;;39.55;18.13;;;1.40;99.90;;;;;;5104927;28;20074;-83
2023/01/20 11:15:56;;;;;;;39.05;18.77;;;1.50;99.90;;;;;;5104270;28;20311;-83
2023/01/20 11:18:31;;;;;;;37.05;18.25;;;1.50;99.90;;;;;;5103401;28;20050;-83
2023/01/20 11:21:11;;;;;;;45.78;18.90;;;1.50;99.90;;;;;;5087572;28;20047;-84
2023/01/20 11:23:59;;;;;;;32.35;16.58;;;1.50;99.90;;;;;;5102637;28;20044;-83
2023/01/20 11:26:39;;;;;;;42.60;18.92;;;1.50;99.90;;;;;;5103338;28;20083;-84
2023/01/20 11:29:10;;;;;;;38.25;18.45;;;1.50;99.90;;;;;;5101602;28;20067;-84
2023/01/20 11:31:58;;;;;;;41.72;19.20;;;1.50;99.90;;;;;;5102246;28;20055;-83
2023/01/20 11:34:28;;;;;;;35.22;17.55;;;1.50;99.90;;;;;;5103057;28;20060;-83
2023/01/20 11:37:28;;;;;;;41.47;19.80;;;1.50;99.90;;;;;;5103331;28;20047;-84
2023/01/20 11:40:01;;;;;;;39.03;19.88;;;1.50;99.90;;;;;;5102736;28;20051;-83
2023/01/20 11:42:41;;;;;;;;;;;1.50;99.90;;;;;;5103290;28;20052;-83
2023/01/20 11:45:29;;;;;;;43.38;20.77;;;1.60;99.90;;;;;;5102606;28;20149;-83
2023/01/20 11:48:17;;;;;;;51.83;24.90;;;1.60;99.90;;;;;;5103302;28;20089;-83
2023/01/20 11:50:55;;;;;;;38.83;18.33;;;1.60;99.90;;;;;;5099794;28;20108;-84
2023/01/20 11:53:26;;;;;;;37.88;19.13;;;1.60;99.90;;;;;;5102373;28;20120;-83
2023/01/20 11:55:55;;;;;;;38.13;18.60;;;1.60;99.90;;;;;;5102860;28;20059;-84
2023/01/20 11:58:25;;;;;;;37.35;18.63;;;1.60;99.90;;;;;;5102826;28;20040;-83
2023/01/20 12:01:02;;;;;;;42.42;19.42;;;2.00;99.90;;;;;;5102739;28;20054;-84
2023/01/20 12:03:43;;;;;;;36.22;17.60;;;1.60;99.90;;;;;;5085767;28;20040;-84
2023/01/20 12:06:17;;;;;;;38.05;17.45;;;1.60;99.90;;;;;;5105531;27;20067;-84
2023/01/20 12:08:51;;;;;;;35.05;16.70;;;1.60;99.90;;;;;;5106415;27;20047;-85
2023/01/20 12:11:44;;;;;;;38.95;17.02;;;2.10;99.90;;;;;;5128691;27;20043;-84
2023/01/20 12:14:36;;;;;;;38.38;18.75;;;1.60;99.90;;;;;;5110412;27;20397;-83
2023/01/20 12:17:19;;;;;;;39.03;17.67;;;1.60;99.90;;;;;;5109935;27;20045;-82
2023/01/20 12:20:04;;;;;;;38.38;17.67;;;1.60;99.90;;;;;;5109930;27;20477;-83
2023/01/20 12:22:58;;;;;;;36.80;19.85;;;1.60;99.90;;;;;;5109970;27;20043;-83
2023/01/20 12:25:36;;;;;;;35.53;17.95;;;1.60;99.90;;;;;;5109801;27;20055;-83
2023/01/20 12:28:33;;;;;;;36.13;17.92;;;1.60;99.90;;;;;;5128143;27;20046;-82
2023/01/20 12:31:01;;;;;;;38.13;17.75;;;1.60;99.90;;;;;;5128208;27;20082;-82
2023/01/20 12:33:42;;;;;;;37.28;17.45;;;1.70;99.90;;;;;;5093085;27;20500;-82
2023/01/20 12:36:43;;;;;;;36.47;19.08;;;1.70;99.90;;;;;;5109869;27;20062;-82
2023/01/20 12:39:57;;;;;;;34.97;18.05;;;1.70;99.90;;;;;;5092414;27;20046;-82
2023/01/20 12:42:57;;;;;;;36.05;17.40;;;1.70;99.90;;;;;;5048538;27;20078;-82
2023/01/20 12:46:08;;;;;;;38.53;17.50;;;1.70;99.90;;;;;;5109434;27;20055;-83
2023/01/20 12:48:50;;;;;;;38.08;16.50;;;1.70;99.90;;;;;;5098310;27;20055;-82
2023/01/20 12:51:27;;;;;;;23.02;11.43;;;1.70;99.90;;;;;;5092907;27;20397;-82
2023/01/20 12:54:21;;;;;;;33.42;16.92;;;1.70;99.90;;;;;;5109426;27;20055;-82
2023/01/20 12:56:51;;;;;;;36.78;17.15;;;1.50;99.90;;;;;;5092135;27;20051;-83
2023/01/20 12:59:43;;;;;;;39.53;17.67;;;1.70;99.90;;;;;;5109186;27;20050;-83
2023/01/20 13:02:46;;;;;;;38.65;17.00;;;1.60;99.90;;;;;;5109076;27;20078;-83
2023/01/20 13:05:57;;;;;;;27.58;16.02;;;1.60;99.90;;;;;;5091871;27;20043;-83
2023/01/20 13:08:39;;;;;;;33.75;16.50;;;1.60;99.90;;;;;;5071776;27;20416;-82
2023/01/20 13:11:26;;;;;;;36.05;17.48;;;1.60;99.90;;;;;;5091668;27;20138;-84
2023/01/20 13:14:11;;;;;;;32.78;15.63;;;1.70;99.90;;;;;;5108826;27;20068;-85
2023/01/20 13:17:20;;;;;;;31.52;16.25;;;1.70;99.90;;;;;;5109933;27;20092;-85
2023/01/20 13:19:48;;;;;;;33.85;16.75;;;1.70;99.90;;;;;;5010558;28;20509;-84